Arch, NM

4:04 AM MDT on August 20, 2014 (GMT -0600)
S of ENMU | Change Station
CLOSE
Current Station
Personal Weather Station
Location: Portales, NM
Elevation: 4078 ft
Nearby Weather Stations

Elev 4078 ft 34.17 °N, 103.35 °W | Updated 9 minutes ago

Clear
Clear
72.5 °F
Feels Like 75 °F
N
5.6
Wind Variable Wind from North
Gusts 5.6 mph

Today
High -- | Low -- °F
--% Chance of Precip.
Yesterday
High -- | Low -- °F
Precip. -- in
6:18 AM 7:34 PM
Waning Crescent, 23% visible
Pressure 29.75 in
Visibility 10.0 miles
Clouds Clear
Heat Index 75 °F
Dew Point 62 °F
Humidity 69%
Rainfall 0.00 in
Snow Depth Not available.
UV 0 out of 12
Pollen 7.00 out of 12
Air Quality Not available.
Flu Activity Not available.
METAR KCVS 200958Z AUTO 18007KT 10SM CLR 21/17 A2995 RMK AO2 SLP074 T02070169 $

More Conditions Fewer Conditions

Pressure 29.75 in
Visibility 10.0 miles
Clouds Clear
Heat Index 75 °F
Dew Point 62 °F
Humidity 69%
Rainfall 0.00 in
Snow Depth Not available.
UV 0 out of 12
Pollen 7.00 out of 12
Air Quality Not available.
Flu Activity Not available.
METAR KCVS 200958Z AUTO 18007KT 10SM CLR 21/17 A2995 RMK AO2 SLP074 T02070169 $

More Conditions Fewer Conditions

10-Day Weather Forecast

Almanac

Astronomy

Aug. 20, 2014 Rise Set
Actual Time 6:18 AM MDT 7:34 PM MDT
Civil Twilight 5:52 AM MDT 8:00 PM MDT
Nautical Twilight 5:20 AM MDT 8:31 PM MDT
Astronomical Twilight 4:48 AM MDT 9:04 PM MDT
Moon 2:04 AM MDT 4:16 PM MDT
Length of Visible Light 14h 08m
Length of Day
13h 16m
Tomorrow will be 1m 56s shorter.
Waning Crescent, 23% of the Moon is Illuminated
Today
Waning Crescent
Aug 25
New
Sep 2
First Quarter
Sep 8
Full
Sep 15
Last Quarter

Today's Extremes

State Highs State Lows

Community

WunderPhotos

Upload Photos

1,745,604 photos uploaded!

Nearby

Snow Depth

Station Depth Elevation
Sierra Blanca 1 in 10280 ft
Wesner Springs 1 in 11120 ft
Gallegos Peak 0 in 9800 ft
Tolby 0 in 10180 ft
Red River Pass #2 0 in 9850 ft

Earthquake Activity

City Distance Mag. Time & Date
No recent earthquake activity has been reported nearby.
Minimum magnitude displayed is 2.5.

Coastal Water Temperatures

Place Temperature
No Stations Reporting

Nearby Weather Stations